Time;durP1;ratioP1;P1;durP2;ratioP2;P2;SDS_P1;SDS_P2;PMS_P1;PMS_P2;Temp;Humidity;BMP_temperature;BMP_pressure;BME280_temperature;BME280_humidity;BME280_pressure;Samples;Min_cycle;Max_cycle;Signal;HPM_P1;HPM_P2
2022/01/20 00:01:50;;;;;;;15.67;5.00;;;;;;;-4.37;70.51;98306.84;5043670;28;20052;-69
2022/01/20 00:04:33;;;;;;;13.60;4.77;;;;;;;-4.29;70.33;98308.44;5035332;28;20465;-69
2022/01/20 00:09:56;;;;;;;12.83;4.90;;;;;;;-4.34;70.24;98298.41;5036081;28;20065;-71
2022/01/20 00:28:17;;;;;;;15.40;5.10;;;;;;;-4.35;70.61;98302.13;5046917;28;20053;-67
2022/01/20 00:33:19;;;;;;;15.47;5.20;;;;;;;-4.37;70.64;98298.00;5032627;28;20095;-68
2022/01/20 00:38:22;;;;;;;16.67;5.73;;;;;;;-4.37;70.80;98295.34;5032059;28;20041;-66
2022/01/20 00:40:51;;;;;;;20.30;5.93;;;;;;;-4.39;71.02;98294.75;5034103;28;20056;-69
2022/01/20 00:43:18;;;;;;;;;;;;;;;-4.35;70.87;98301.31;5047971;28;20052;-67
2022/01/20 00:45:48;;;;;;;19.13;5.95;;;;;;;-4.40;71.09;98307.28;5049518;28;20019;-68
2022/01/20 00:48:14;;;;;;;15.67;5.03;;;;;;;-4.37;71.03;98301.53;5046380;28;20505;-70
2022/01/20 00:50:41;;;;;;;16.70;6.00;;;;;;;-4.32;70.83;98292.88;5035190;28;20065;-70
2022/01/20 00:53:08;;;;;;;14.45;5.55;;;;;;;-4.36;71.32;98299.69;5037488;28;20102;-69
2022/01/20 00:55:38;;;;;;;18.13;5.50;;;;;;;-4.35;71.33;98310.13;5063070;28;20041;-67
2022/01/20 00:58:04;;;;;;;19.70;5.10;;;;;;;-4.37;71.59;98309.53;5032545;28;20099;-68
2022/01/20 01:00:32;;;;;;;17.73;5.80;;;;;;;-4.38;72.26;98299.88;5034772;28;20065;-68
2022/01/20 01:02:58;;;;;;;20.17;5.53;;;;;;;-4.37;72.23;98304.19;5041105;28;20528;-68
2022/01/20 01:05:26;;;;;;;13.77;4.93;;;;;;;-4.28;72.23;98292.22;5047155;28;20045;-68
2022/01/20 01:07:55;;;;;;;12.93;4.80;;;;;;;-4.33;72.43;98288.56;5049100;28;20060;-69
2022/01/20 01:10:23;;;;;;;22.07;5.33;;;;;;;-4.25;72.25;98276.81;5034701;28;20563;-69
2022/01/20 01:15:27;;;;;;;20.67;5.83;;;;;;;-4.14;72.26;98286.78;5050437;28;20075;-68
2022/01/20 01:23:32;;;;;;;14.73;4.87;;;;;;;-4.17;71.96;98249.84;5050640;28;20080;-69
2022/01/20 01:25:59;;;;;;;17.17;5.03;;;;;;;-4.10;72.33;98263.97;5043729;28;20512;-69
2022/01/20 01:28:27;;;;;;;17.00;5.57;;;;;;;-4.30;72.56;98254.22;5041850;28;20045;-69
2022/01/20 01:31:18;;;;;;;16.10;5.50;;;;;;;-4.18;72.35;98264.22;5045490;28;20103;-69
2022/01/20 01:33:52;;;;;;;;;;;;;;;-4.10;72.44;98273.81;5042208;28;20049;-69
2022/01/20 01:36:21;;;;;;;17.10;5.47;;;;;;;-4.08;72.02;98277.94;5034348;28;19932;-69
2022/01/20 01:38:48;;;;;;;20.40;5.50;;;;;;;-4.10;72.18;98272.00;5045957;28;20055;-69
2022/01/20 01:41:20;;;;;;;14.93;5.20;;;;;;;-4.13;72.21;98278.56;5043666;28;20073;-69
2022/01/20 01:43:49;;;;;;;16.37;5.30;;;;;;;-4.13;72.39;98246.53;5043464;28;20226;-69
2022/01/20 01:46:16;;;;;;;18.33;5.70;;;;;;;-4.11;72.49;98261.50;5031394;28;20063;-70
2022/01/20 01:48:45;;;;;;;14.95;5.80;;;;;;;-4.11;72.35;98242.81;5046169;28;20049;-70
2022/01/20 01:51:12;;;;;;;19.33;5.80;;;;;;;-4.08;72.32;98242.38;5039701;28;20058;-70
2022/01/20 01:53:41;;;;;;;18.33;5.90;;;;;;;-4.05;72.27;98244.63;5029191;28;20092;-69
2022/01/20 01:56:08;;;;;;;15.73;5.50;;;;;;;-4.22;72.59;98263.03;5045655;28;20095;-68
2022/01/20 01:58:36;;;;;;;17.30;5.97;;;;;;;-4.19;72.68;98265.25;5046011;28;20521;-69
2022/01/20 02:01:12;;;;;;;21.23;6.27;;;;;;;-4.15;72.75;98256.63;5040737;28;20046;-70
2022/01/20 02:03:47;;;;;;;18.00;6.38;;;;;;;-4.11;72.68;98237.47;5045667;28;20053;-71
2022/01/20 02:09:27;;;;;;;18.73;5.93;;;;;;;-4.07;72.77;98276.06;5035940;28;20045;-71
2022/01/20 02:20:36;;;;;;;17.60;5.87;;;;;;;-4.30;73.61;98235.56;5051851;28;20045;-71
2022/01/20 02:23:11;;;;;;;19.47;6.40;;;;;;;-4.27;73.58;98223.63;5032549;28;20069;-71
2022/01/20 02:25:39;;;;;;;22.23;6.60;;;;;;;-4.20;73.32;98220.91;5026452;28;20072;-69
2022/01/20 02:28:09;;;;;;;18.90;6.30;;;;;;;-4.16;73.29;98246.97;5040418;28;20405;-70
2022/01/20 02:30:37;;;;;;;20.43;6.27;;;;;;;-4.20;73.31;98255.63;5044857;28;20053;-71
2022/01/20 02:33:07;;;;;;;15.18;5.68;;;;;;;-4.29;73.83;98247.06;5030043;28;20111;-70
2022/01/20 02:35:37;;;;;;;21.97;6.50;;;;;;;-4.16;73.57;98225.63;5042722;28;20075;-70
2022/01/20 02:45:51;;;;;;;18.63;6.50;;;;;;;-4.24;73.77;98204.50;5041136;28;20049;-70
2022/01/20 02:48:17;;;;;;;19.47;6.93;;;;;;;-4.17;73.66;98201.78;5035935;28;20675;-71
2022/01/20 02:50:45;;;;;;;19.87;6.23;;;;;;;-4.14;73.60;98196.00;5036368;28;20073;-70
2022/01/20 02:53:11;;;;;;;18.15;6.20;;;;;;;-4.14;73.78;98188.00;5031984;28;20421;-71
2022/01/20 02:55:41;;;;;;;22.13;6.57;;;;;;;-4.13;73.59;98171.78;5050732;28;20126;-71
2022/01/20 02:58:08;;;;;;;17.67;6.13;;;;;;;-4.28;73.63;98174.78;5034069;28;20057;-71
2022/01/20 03:00:35;;;;;;;17.60;6.90;;;;;;;-4.14;74.16;98180.81;5049255;28;20060;-71
2022/01/20 03:03:02;;;;;;;18.15;6.15;;;;;;;-4.08;73.70;98172.97;5041897;28;20132;-71
2022/01/20 03:05:31;;;;;;;26.20;6.83;;;;;;;-3.99;73.30;98166.31;5044062;28;20053;-71
2022/01/20 03:08:07;;;;;;;20.73;6.57;;;;;;;-4.02;73.48;98185.44;5046991;28;20045;-71
2022/01/20 03:10:34;;;;;;;23.90;7.00;;;;;;;-4.01;73.61;98173.72;5035520;28;20107;-71
2022/01/20 03:13:00;;;;;;;22.25;7.00;;;;;;;-3.99;73.52;98177.00;5029937;28;20192;-71
2022/01/20 03:15:27;;;;;;;19.57;6.67;;;;;;;-3.99;73.46;98174.31;5030178;28;20033;-70
2022/01/20 03:17:53;;;;;;;17.47;5.73;;;;;;;-3.97;73.57;98164.25;5035577;28;20525;-70
2022/01/20 03:20:19;;;;;;;24.67;7.13;;;;;;;-4.00;73.71;98154.00;5041229;28;20052;-70
2022/01/20 03:22:46;;;;;;;20.50;6.55;;;;;;;-4.00;73.65;98162.81;5016877;28;20049;-70
2022/01/20 03:25:13;;;;;;;25.33;6.80;;;;;;;-4.02;73.62;98182.78;5042185;28;20432;-71
2022/01/20 03:27:40;;;;;;;17.63;6.50;;;;;;;-4.01;73.78;98163.06;5040773;28;20103;-70
2022/01/20 03:30:08;;;;;;;23.00;7.97;;;;;;;-4.06;74.00;98153.03;5033348;28;20056;-70
2022/01/20 03:32:34;;;;;;;26.30;7.37;;;;;;;-3.97;73.93;98172.25;5035265;28;20089;-71
2022/01/20 03:35:01;;;;;;;22.27;7.50;;;;;;;-4.04;73.90;98136.78;5039372;28;20464;-70
2022/01/20 03:37:29;;;;;;;19.77;7.60;;;;;;;-4.04;74.13;98152.81;5035711;28;20111;-70
2022/01/20 03:40:04;;;;;;;23.47;7.50;;;;;;;-4.12;74.48;98167.25;5045407;28;20456;-70
2022/01/20 03:42:32;;;;;;;20.43;6.97;;;;;;;-4.00;74.38;98159.34;5042011;28;20113;-70
2022/01/20 03:44:59;;;;;;;18.33;7.20;;;;;;;-3.95;74.19;98148.00;5031406;28;20096;-69
2022/01/20 03:47:26;;;;;;;23.00;7.37;;;;;;;-3.99;74.35;98143.09;5053350;28;20046;-70
2022/01/20 03:52:25;;;;;;;18.80;6.07;;;;;;;-3.89;74.29;98136.44;5041061;28;20132;-70
2022/01/20 03:54:52;;;;;;;21.63;7.67;;;;;;;-3.98;74.35;98167.94;5042100;28;20059;-70
2022/01/20 03:57:19;;;;;;;25.13;6.70;;;;;;;-3.93;74.46;98144.06;5032848;28;20060;-70
2022/01/20 04:00:05;;;;;;;23.17;7.60;;;;;;;-3.94;74.70;98131.75;5042908;28;20069;-70
2022/01/20 04:02:40;;;;;;;18.53;6.70;;;;;;;-4.01;75.09;98137.16;5047727;28;20533;-69
2022/01/20 04:05:26;;;;;;;23.00;7.53;;;;;;;-4.02;75.07;98164.88;5041430;28;20056;-70
2022/01/20 04:08:09;;;;;;;25.80;7.90;;;;;;;-3.96;74.91;98131.16;5050837;28;20579;-70
2022/01/20 04:10:35;;;;;;;23.97;7.50;;;;;;;-3.96;75.21;98128.47;5036763;28;20095;-69
2022/01/20 04:13:05;;;;;;;21.23;6.37;;;;;;;-3.92;74.70;98145.69;5050316;28;20512;-70
2022/01/20 04:15:38;;;;;;;24.03;7.97;;;;;;;-3.92;74.85;98139.56;5043828;28;20501;-70
2022/01/20 04:18:05;;;;;;;24.07;7.43;;;;;;;-3.91;75.03;98150.00;5034799;28;20065;-69
2022/01/20 04:20:31;;;;;;;24.35;8.63;;;;;;;-3.91;75.03;98141.97;5039869;28;20059;-70
2022/01/20 04:23:01;;;;;;;25.53;7.77;;;;;;;-3.88;75.12;98141.56;5033408;28;20049;-70
2022/01/20 04:25:28;;;;;;;26.40;8.13;;;;;;;-3.95;75.09;98111.41;5057488;28;20049;-71
2022/01/20 04:27:54;;;;;;;26.23;7.67;;;;;;;-3.93;75.59;98129.91;5040348;28;20069;-71
2022/01/20 04:30:20;;;;;;;24.10;8.60;;;;;;;-3.93;75.43;98114.69;5038023;28;20060;-70
2022/01/20 04:32:48;;;;;;;27.33;9.03;;;;;;;-3.96;75.51;98112.47;5050109;28;20049;-70
2022/01/20 04:35:18;;;;;;;29.38;8.38;;;;;;;-3.91;75.43;98090.44;5035413;28;20037;-70
2022/01/20 04:37:47;;;;;;;23.03;7.53;;;;;;;-3.89;75.29;98101.72;5043909;28;20051;-70
2022/01/20 04:40:14;;;;;;;23.80;8.23;;;;;;;-3.91;75.30;98095.78;5044270;28;20055;-69
2022/01/20 04:42:43;;;;;;;23.73;9.02;;;;;;;-3.96;75.61;98101.78;5049546;28;20063;-71
2022/01/20 04:45:18;;;;;;;23.30;8.27;;;;;;;-3.92;75.56;98105.63;5045164;28;20092;-70
2022/01/20 04:47:53;;;;;;;23.80;8.53;;;;;;;-3.92;75.60;98097.63;5028154;28;20481;-70
2022/01/20 04:58:36;;;;;;;26.37;8.97;;;;;;;-3.93;76.13;98113.88;5047322;28;20173;-70
2022/01/20 05:01:03;;;;;;;25.80;9.27;;;;;;;-3.94;75.93;98110.38;5043737;28;20073;-71
2022/01/20 05:03:35;;;;;;;27.77;9.80;;;;;;;-3.95;75.96;98118.63;5045478;28;20061;-70
2022/01/20 05:06:15;;;;;;;28.37;9.87;;;;;;;-3.93;75.95;98106.66;5040457;28;20139;-70
2022/01/20 05:08:41;;;;;;;28.87;9.93;;;;;;;-3.96;76.25;98101.78;5042917;28;20045;-70
2022/01/20 05:11:10;;;;;;;32.27;10.00;;;;;;;-4.05;76.49;98087.09;5046261;28;20511;-70
2022/01/20 05:13:40;;;;;;;28.23;9.40;;;;;;;-4.01;76.63;98102.44;5044731;28;20041;-70
2022/01/20 05:16:08;;;;;;;24.00;8.50;;;;;;;-3.93;76.35;98108.53;5027917;28;20132;-70
2022/01/20 05:18:35;;;;;;;26.02;8.68;;;;;;;-3.91;76.35;98088.56;5043358;28;20135;-70
2022/01/20 05:21:02;;;;;;;30.37;9.77;;;;;;;-3.99;76.39;98092.34;5055761;28;20479;-70
2022/01/20 05:23:30;;;;;;;27.23;8.85;;;;;;;-3.96;76.71;98092.97;5059954;28;20415;-70
2022/01/20 05:25:58;;;;;;;25.90;8.90;;;;;;;-3.92;76.46;98097.63;5064146;28;20095;-71
2022/01/20 05:28:25;;;;;;;30.05;9.70;;;;;;;-3.90;76.35;98092.06;5047990;28;20060;-70
2022/01/20 05:30:51;;;;;;;29.77;8.47;;;;;;;-3.92;76.70;98084.25;5043379;28;20095;-71
2022/01/20 05:33:20;;;;;;;29.77;10.40;;;;;;;-3.89;76.53;98062.47;5045281;28;20048;-71
2022/01/20 05:35:47;;;;;;;29.03;10.00;;;;;;;-3.81;76.37;98060.53;5048813;28;20053;-71
2022/01/20 05:38:13;;;;;;;27.43;9.37;;;;;;;-3.82;76.19;98058.91;5044439;28;20045;-70
2022/01/20 05:40:42;;;;;;;31.45;9.65;;;;;;;-3.90;76.57;98082.22;5045992;28;20053;-70
2022/01/20 05:43:08;;;;;;;;;;;;;;;-3.88;76.50;98076.63;5045666;28;20095;-71
2022/01/20 05:45:35;;;;;;;33.85;10.38;;;;;;;-3.93;76.43;98077.28;5028372;28;19968;-71
2022/01/20 05:48:15;;;;;;;29.83;9.43;;;;;;;-3.88;76.52;98073.97;5028682;28;20564;-65
2022/01/20 05:51:15;;;;;;;29.30;9.67;;;;;;;-3.89;76.47;98107.88;5015061;28;20053;-67
2022/01/20 05:53:41;;;;;;;22.23;8.95;;;;;;;-3.89;76.34;98083.00;5039573;28;20050;-67
2022/01/20 05:56:09;;;;;;;27.70;8.87;;;;;;;-3.92;76.85;98088.81;5036009;28;20054;-68
2022/01/20 05:58:36;;;;;;;;;;;;;;;-3.88;76.78;98055.25;5036915;28;20049;-66
2022/01/20 06:01:04;;;;;;;27.60;8.77;;;;;;;-3.90;76.44;98066.19;5050440;28;19929;-67
2022/01/20 06:03:36;;;;;;;31.27;9.30;;;;;;;-3.99;76.77;98081.66;5049605;28;20053;-65
2022/01/20 06:06:05;;;;;;;36.70;9.80;;;;;;;-3.86;76.65;98079.88;5045117;28;20128;-66
2022/01/20 06:08:31;;;;;;;27.38;9.35;;;;;;;-3.91;76.98;98053.84;5040710;28;20060;-66
2022/01/20 06:10:57;;;;;;;34.77;11.13;;;;;;;-3.86;76.79;98058.53;5043351;28;20060;-69
2022/01/20 06:13:27;;;;;;;28.07;9.80;;;;;;;-3.85;76.76;98084.19;5043242;28;20045;-70
2022/01/20 06:15:54;;;;;;;36.93;10.07;;;;;;;-3.94;77.03;98077.53;5042622;28;20103;-68
2022/01/20 06:18:21;;;;;;;28.45;9.10;;;;;;;-4.00;77.25;98060.53;5027981;28;20051;-68
2022/01/20 06:20:55;;;;;;;33.10;10.10;;;;;;;-3.90;77.31;98039.47;5027466;28;20481;-67
2022/01/20 06:23:22;;;;;;;31.10;10.20;;;;;;;-3.90;76.83;98052.84;5048573;28;20091;-66
2022/01/20 06:25:49;;;;;;;39.93;11.00;;;;;;;-3.88;76.94;98039.25;5032739;28;20046;-66
2022/01/20 06:28:17;;;;;;;35.45;11.10;;;;;;;-3.81;76.95;98034.66;5045836;28;20049;-67
2022/01/20 06:30:45;;;;;;;29.20;9.57;;;;;;;-3.88;76.84;98044.59;5046420;28;20081;-68
2022/01/20 06:33:11;;;;;;;34.17;10.95;;;;;;;-3.78;76.93;98028.84;5046744;28;20075;-69
2022/01/20 06:35:43;;;;;;;43.13;11.30;;;;;;;-3.77;76.76;98021.63;5037252;28;20087;-68
2022/01/20 06:38:09;;;;;;;36.63;11.70;;;;;;;-3.71;76.49;98034.13;5034865;28;20037;-67
2022/01/20 06:40:36;;;;;;;35.60;11.47;;;;;;;-3.75;76.64;98027.56;5041654;28;20100;-68
2022/01/20 06:43:02;;;;;;;33.30;11.17;;;;;;;-3.76;76.69;98023.25;5035711;28;20045;-67
2022/01/20 06:45:29;;;;;;;38.35;12.30;;;;;;;-3.78;76.78;98023.50;5036631;28;20042;-69
2022/01/20 06:48:03;;;;;;;31.23;11.03;;;;;;;-3.75;76.56;98039.09;5047823;28;20721;-68
2022/01/20 06:50:32;;;;;;;34.30;11.97;;;;;;;-3.70;76.42;98025.84;5031975;28;20521;-67
2022/01/20 06:52:58;;;;;;;28.77;11.27;;;;;;;-3.70;76.22;98039.22;5034062;28;20044;-68
2022/01/20 06:55:25;;;;;;;31.73;12.03;;;;;;;-3.64;76.24;98034.03;5046568;28;20084;-68
2022/01/20 06:57:51;;;;;;;38.27;13.27;;;;;;;-3.71;76.21;98029.56;5030923;28;20071;-68
2022/01/20 07:00:22;;;;;;;31.83;11.52;;;;;;;-3.61;75.96;98033.56;5029899;28;20057;-67
2022/01/20 07:02:50;;;;;;;33.83;11.00;;;;;;;-3.64;76.11;98036.69;5035222;28;20567;-69
2022/01/20 07:05:20;;;;;;;36.60;12.57;;;;;;;-3.61;76.18;98025.56;5045911;28;20096;-68
2022/01/20 07:07:47;;;;;;;38.03;12.90;;;;;;;-3.56;76.04;98031.84;5029295;28;20068;-68
2022/01/20 07:10:21;;;;;;;39.40;13.27;;;;;;;-3.60;75.96;98027.19;5030902;28;20045;-67
2022/01/20 07:12:50;;;;;;;33.87;13.07;;;;;;;-3.61;76.13;98046.94;5045191;28;20052;-68
2022/01/20 07:15:18;;;;;;;41.87;14.10;;;;;;;-3.66;76.21;98047.59;5039135;28;20493;-69
2022/01/20 07:17:46;;;;;;;38.20;12.27;;;;;;;-3.59;76.06;98060.88;5033509;28;20680;-68
2022/01/20 07:20:15;;;;;;;35.37;12.67;;;;;;;-3.58;75.95;98038.47;5051179;28;20152;-67
2022/01/20 07:23:09;;;;;;;37.07;11.83;;;;;;;-3.61;76.02;98004.19;5047803;28;20053;-67
2022/01/20 07:25:48;;;;;;;37.03;12.40;;;;;;;-3.66;76.15;98015.53;5044654;28;20056;-68
2022/01/20 07:28:17;;;;;;;37.27;12.77;;;;;;;-3.67;76.35;98024.59;5039113;28;20047;-69
2022/01/20 07:30:45;;;;;;;38.43;12.13;;;;;;;-3.64;76.24;98004.63;5043434;28;20045;-65
2022/01/20 07:33:11;;;;;;;36.77;12.37;;;;;;;-3.59;76.12;98026.16;5051629;28;20476;-66
2022/01/20 07:35:39;;;;;;;44.23;12.03;;;;;;;-3.56;75.94;98013.16;5041516;28;20136;-67
2022/01/20 07:38:07;;;;;;;43.35;12.52;;;;;;;-3.57;75.95;98032.91;5062823;28;20079;-67
2022/01/20 07:40:36;;;;;;;37.03;12.43;;;;;;;-3.59;75.97;98032.31;5041913;28;20103;-66
2022/01/20 07:43:02;;;;;;;41.43;12.20;;;;;;;-3.64;76.17;98021.47;5017016;28;20140;-66
2022/01/20 07:45:37;;;;;;;34.13;12.30;;;;;;;-3.54;75.88;98002.22;5041455;28;20095;-73
2022/01/20 07:48:24;;;;;;;41.03;11.77;;;;;;;-3.57;76.14;98027.56;5039338;28;20046;-74
2022/01/20 07:51:17;;;;;;;37.03;12.47;;;;;;;-3.62;76.16;98011.38;5043291;28;20110;-74
2022/01/20 07:53:44;;;;;;;33.17;11.70;;;;;;;-3.62;76.17;98007.91;5033613;28;20046;-75
2022/01/20 07:56:13;;;;;;;43.05;12.35;;;;;;;-3.53;76.10;98016.41;5037401;28;20041;-73
2022/01/20 07:58:41;;;;;;;49.87;14.27;;;;;;;-3.51;75.89;98028.50;5041363;28;20049;-74
2022/01/20 08:01:07;;;;;;;41.87;12.57;;;;;;;-3.52;75.88;98016.16;5046157;28;20053;-74
2022/01/20 08:03:44;;;;;;;;;;;;;;;-3.55;75.88;98024.63;5045182;28;20099;-72
2022/01/20 08:06:14;;;;;;;40.60;12.30;;;;;;;-3.62;76.02;98011.38;5051748;28;19925;-73
2022/01/20 08:08:44;;;;;;;40.57;11.80;;;;;;;-3.58;76.18;98014.41;5043466;28;20044;-73
2022/01/20 08:11:37;;;;;;;43.23;12.03;;;;;;;-3.54;76.25;98017.47;5043943;28;20041;-73
2022/01/20 08:14:15;;;;;;;34.80;11.53;;;;;;;-3.61;76.22;98029.03;5038098;28;20063;-74
2022/01/20 08:16:41;;;;;;;44.90;12.45;;;;;;;-3.44;75.79;98009.69;5049927;28;20070;-74
2022/01/20 08:19:09;;;;;;;38.00;11.83;;;;;;;-3.53;76.12;98014.53;5046098;28;20053;-74
2022/01/20 08:21:36;;;;;;;32.57;11.80;;;;;;;-3.46;76.30;98006.44;5036081;28;20067;-75
2022/01/20 08:24:04;;;;;;;40.42;12.57;;;;;;;-3.41;75.99;98027.97;5044006;28;20056;-74
2022/01/20 08:26:31;;;;;;;33.78;11.50;;;;;;;-3.43;75.93;98022.03;5039268;28;20582;-75
2022/01/20 08:28:59;;;;;;;36.17;11.43;;;;;;;-3.48;75.91;98006.69;5034738;28;20045;-66
2022/01/20 08:31:26;;;;;;;35.87;10.83;;;;;;;-3.56;76.24;98031.84;5044732;28;20045;-65
2022/01/20 08:33:52;;;;;;;31.77;11.50;;;;;;;-3.63;76.42;98001.72;5042171;28;20482;-68
2022/01/20 08:36:27;;;;;;;38.07;11.00;;;;;;;-3.59;76.39;97978.88;5046112;28;20462;-68
2022/01/20 08:38:54;;;;;;;37.83;11.68;;;;;;;-3.51;76.36;97979.59;5028691;28;20073;-67
2022/01/20 08:41:20;;;;;;;39.93;10.73;;;;;;;-3.50;76.40;97979.38;5050083;28;20147;-67
2022/01/20 08:43:46;;;;;;;29.40;11.03;;;;;;;-3.49;76.31;97988.19;5041930;28;20144;-67
2022/01/20 08:46:16;;;;;;;29.67;10.77;;;;;;;-3.48;75.97;97968.44;5035593;28;20045;-67
2022/01/20 08:48:42;;;;;;;35.47;8.90;;;;;;;-3.47;76.00;97991.44;5042700;28;20052;-67
2022/01/20 08:51:19;;;;;;;34.63;12.10;;;;;;;-3.64;76.18;97952.00;5032546;28;20064;-67
2022/01/20 08:53:57;;;;;;;32.57;9.33;;;;;;;-3.53;76.36;97974.44;5032125;28;20045;-67
2022/01/20 08:56:27;;;;;;;29.73;10.03;;;;;;;-3.58;76.09;97969.81;5041172;28;20068;-67
2022/01/20 08:58:53;;;;;;;38.60;10.67;;;;;;;-3.59;76.77;97959.34;5033577;28;20057;-67
2022/01/20 09:01:21;;;;;;;33.40;10.97;;;;;;;-3.60;76.64;97931.00;5040254;28;20041;-66
2022/01/20 09:03:47;;;;;;;36.08;10.50;;;;;;;-3.51;76.43;97948.34;5045175;28;20041;-67
2022/01/20 09:06:15;;;;;;;34.40;10.10;;;;;;;-3.52;76.35;97927.97;5050333;28;20041;-67
2022/01/20 09:08:49;;;;;;;35.23;10.63;;;;;;;-3.57;76.44;97930.53;5042444;28;20041;-67
2022/01/20 09:11:21;;;;;;;30.42;10.32;;;;;;;-3.58;76.69;97924.38;5049047;28;20053;-68
2022/01/20 09:16:42;;;;;;;37.13;10.50;;;;;;;-3.53;76.33;97930.91;5031620;28;20481;-65
2022/01/20 09:19:16;;;;;;;31.57;9.63;;;;;;;-3.50;76.36;97917.91;5045861;28;20069;-67
2022/01/20 09:22:09;;;;;;;33.37;10.27;;;;;;;-3.53;76.36;97929.03;5042104;28;20144;-65
2022/01/20 09:24:35;;;;;;;25.70;9.07;;;;;;;-3.56;76.35;97941.00;5040658;28;20139;-67
2022/01/20 09:27:04;;;;;;;32.73;10.23;;;;;;;-3.56;76.51;97913.47;5048309;28;20052;-69
2022/01/20 09:29:30;;;;;;;31.67;11.20;;;;;;;-3.57;76.42;97931.38;5032162;28;20132;-69
2022/01/20 09:31:59;;;;;;;28.37;9.67;;;;;;;-3.52;76.28;97927.97;5038248;28;20051;-69
2022/01/20 09:34:29;;;;;;;30.53;10.10;;;;;;;-3.48;76.37;97928.34;5036495;28;20038;-68
2022/01/20 09:36:56;;;;;;;31.23;10.20;;;;;;;-3.51;76.45;97910.09;5048487;28;20052;-69
2022/01/20 09:39:23;;;;;;;30.50;10.33;;;;;;;-3.47;76.41;97911.25;5028699;28;20043;-69
2022/01/20 09:42:00;;;;;;;29.55;10.27;;;;;;;-3.49;76.27;97914.19;5035692;28;20102;-68
2022/01/20 09:44:29;;;;;;;28.03;8.87;;;;;;;-3.47;76.23;97911.25;5040718;28;20045;-69
2022/01/20 09:46:56;;;;;;;26.50;9.33;;;;;;;-3.50;76.47;97885.00;5049079;28;20049;-70
2022/01/20 09:49:42;;;;;;;34.17;10.57;;;;;;;-3.43;76.21;97886.53;5051741;28;20359;-69
2022/01/20 09:52:22;;;;;;;29.60;10.60;;;;;;;-3.40;76.03;97905.81;5035374;28;20081;-69
2022/01/20 09:54:54;;;;;;;34.07;10.17;;;;;;;-3.33;76.07;97888.63;5036422;28;20049;-69
2022/01/20 09:57:22;;;;;;;33.90;10.88;;;;;;;-3.36;75.78;97881.06;5045096;28;20040;-69
2022/01/20 09:59:50;;;;;;;30.23;9.60;;;;;;;-3.32;75.53;97892.94;5041637;28;20501;-73
2022/01/20 10:02:18;;;;;;;37.10;9.87;;;;;;;-3.40;76.08;97887.09;5045071;28;20060;-71
2022/01/20 10:04:51;;;;;;;33.10;10.87;;;;;;;-3.38;76.21;97861.78;5038631;28;20072;-72
2022/01/20 10:07:32;;;;;;;30.63;9.40;;;;;;;-3.39;76.20;97854.81;5036616;28;20059;-71
2022/01/20 10:10:06;;;;;;;29.33;10.80;;;;;;;-3.37;76.15;97886.63;5046438;28;20042;-72
2022/01/20 10:12:51;;;;;;;36.00;9.43;;;;;;;-3.34;76.06;97886.19;5048742;28;20492;-71
2022/01/20 10:15:30;;;;;;;31.43;10.10;;;;;;;-3.25;75.96;97863.41;5032076;28;20052;-71
2022/01/20 10:18:07;;;;;;;25.60;9.80;;;;;;;-3.32;75.96;97874.22;5040048;28;20053;-72
2022/01/20 10:20:50;;;;;;;30.50;10.33;;;;;;;-3.32;75.91;97889.47;5023776;28;20416;-71
2022/01/20 10:23:35;;;;;;;;;;;;;;;-3.28;75.82;97880.75;5034018;28;20053;-74
2022/01/20 10:26:15;;;;;;;27.63;8.70;;;;;;;-3.38;76.01;97858.28;5025927;28;19925;-72
2022/01/20 10:28:52;;;;;;;27.40;8.13;;;;;;;-3.37;76.23;97859.91;5013882;28;20049;-72
2022/01/20 10:31:34;;;;;;;28.93;10.07;;;;;;;-3.45;76.25;97866.41;5045028;28;20522;-70
2022/01/20 10:34:03;;;;;;;28.27;8.93;;;;;;;-3.36;76.23;97865.03;5022754;28;20421;-70
2022/01/20 10:36:37;;;;;;;28.87;9.50;;;;;;;-3.31;76.08;97867.03;5033601;28;20045;-72
2022/01/20 10:39:35;;;;;;;24.83;8.53;;;;;;;-3.29;76.11;97875.63;5027345;28;20135;-68
2022/01/20 10:42:04;;;;;;;31.17;9.97;;;;;;;-3.28;75.83;97878.06;5034701;28;20053;-70
2022/01/20 10:44:41;;;;;;;35.50;11.13;;;;;;;-3.32;75.98;97866.19;5033878;28;20053;-70
2022/01/20 10:47:13;;;;;;;31.07;10.27;;;;;;;-3.28;75.88;97856.69;5045550;28;20057;-72
2022/01/20 10:49:41;;;;;;;35.23;12.30;;;;;;;-3.29;75.98;97871.06;5043722;28;20427;-71
2022/01/20 10:52:10;;;;;;;33.55;11.77;;;;;;;-3.31;76.33;97886.53;5047146;28;20064;-70
2022/01/20 10:54:39;;;;;;;25.87;9.83;;;;;;;-3.37;76.27;97882.13;5047569;28;20098;-70
2022/01/20 10:57:11;;;;;;;31.00;11.10;;;;;;;-3.36;76.39;97861.53;5046579;28;20045;-69
2022/01/20 10:59:48;;;;;;;32.93;10.87;;;;;;;-3.44;76.62;97868.03;5058243;28;20045;-70
2022/01/20 11:02:18;;;;;;;32.70;11.53;;;;;;;-3.38;76.66;97864.47;5041442;28;20178;-71
2022/01/20 11:04:44;;;;;;;43.17;13.63;;;;;;;-3.40;76.47;97849.69;5045808;28;20045;-68
2022/01/20 11:07:14;;;;;;;38.10;12.77;;;;;;;-3.33;76.57;97848.53;5038703;28;20107;-66
2022/01/20 11:09:51;;;;;;;39.40;12.20;;;;;;;-3.32;76.35;97834.13;5043733;28;20053;-68
2022/01/20 11:12:38;;;;;;;38.40;12.50;;;;;;;-3.32;76.27;97847.47;5044011;28;20116;-67
2022/01/20 11:15:12;;;;;;;36.27;12.40;;;;;;;-3.45;76.27;97829.00;5046292;28;20383;-67
2022/01/20 11:17:41;;;;;;;33.53;11.67;;;;;;;-3.33;76.33;97843.19;5038315;28;20509;-67
2022/01/20 11:20:10;;;;;;;37.57;12.00;;;;;;;-3.31;76.10;97843.75;5038606;28;20041;-66
2022/01/20 11:22:38;;;;;;;34.03;11.30;;;;;;;-3.33;76.41;97835.16;5031327;28;20056;-66
2022/01/20 11:25:14;;;;;;;32.53;11.10;;;;;;;-3.29;76.24;97839.00;5036099;28;20045;-67
2022/01/20 11:27:47;;;;;;;33.67;12.20;;;;;;;-3.35;76.42;97868.53;5029713;28;20080;-65
2022/01/20 11:30:33;;;;;;;40.83;12.17;;;;;;;-3.32;76.36;97868.06;5044144;28;20506;-67
2022/01/20 11:33:17;;;;;;;33.13;12.07;;;;;;;-3.36;76.20;97856.19;5026913;28;20064;-67
2022/01/20 11:35:49;;;;;;;35.00;11.60;;;;;;;-3.27;76.20;97852.13;5047869;28;20044;-70
2022/01/20 11:38:19;;;;;;;27.50;10.50;;;;;;;-3.42;76.50;97824.00;5037150;28;20056;-72
2022/01/20 11:40:58;;;;;;;34.13;11.93;;;;;;;-3.31;76.59;97841.09;5037287;28;20052;-72
2022/01/20 11:43:36;;;;;;;34.33;11.50;;;;;;;-3.22;76.01;97854.91;5052763;28;20053;-72
2022/01/20 11:46:10;;;;;;;37.73;11.07;;;;;;;-3.29;76.37;97838.19;5036380;28;20520;-74
2022/01/20 11:48:37;;;;;;;28.03;10.43;;;;;;;-3.34;76.42;97841.56;5050097;28;20041;-73
2022/01/20 11:51:11;;;;;;;32.40;12.13;;;;;;;-3.38;76.29;97834.22;5035395;28;20045;-73
2022/01/20 11:53:42;;;;;;;31.43;11.90;;;;;;;-3.27;76.33;97857.47;5038535;28;20044;-72
2022/01/20 11:56:10;;;;;;;36.33;11.37;;;;;;;-3.38;76.25;97831.56;5040281;28;20488;-73
2022/01/20 11:58:36;;;;;;;39.58;11.18;;;;;;;-3.34;76.38;97830.88;5042500;28;20144;-72
2022/01/20 12:01:05;;;;;;;32.63;11.80;;;;;;;-3.30;76.21;97826.69;5043328;28;20041;-72
2022/01/20 12:03:33;;;;;;;36.03;12.73;;;;;;;-3.23;75.99;97834.56;5050268;28;20127;-71
2022/01/20 12:06:07;;;;;;;36.03;12.50;;;;;;;-3.25;76.15;97823.31;5033350;28;20140;-72
2022/01/20 12:08:57;;;;;;;42.77;12.50;;;;;;;-3.22;75.95;97830.06;5044085;28;20037;-71
2022/01/20 12:11:35;;;;;;;38.77;11.97;;;;;;;-3.25;75.97;97827.84;5042821;28;20043;-72
2022/01/20 12:14:02;;;;;;;34.93;12.70;;;;;;;-3.25;75.82;97842.03;5039284;28;20103;-70
2022/01/20 12:16:28;;;;;;;36.67;11.97;;;;;;;-3.25;75.72;97825.97;5047385;28;20151;-70
2022/01/20 12:18:56;;;;;;;42.67;13.43;;;;;;;-3.20;75.55;97828.78;5044842;28;20471;-69
2022/01/20 12:21:23;;;;;;;38.20;12.17;;;;;;;-3.28;75.89;97829.13;5042917;28;20044;-69
2022/01/20 12:23:52;;;;;;;42.38;13.32;;;;;;;-3.21;75.51;97788.91;5039900;28;20072;-71
2022/01/20 12:26:20;;;;;;;32.83;12.30;;;;;;;-3.22;75.66;97827.38;5041895;28;20590;-70
2022/01/20 12:28:46;;;;;;;31.27;12.00;;;;;;;-3.22;75.46;97832.72;5063762;28;20061;-73
2022/01/20 12:31:13;;;;;;;34.63;12.57;;;;;;;-3.15;75.30;97833.41;5049617;28;20044;-73
2022/01/20 12:33:43;;;;;;;40.22;13.25;;;;;;;-3.06;75.20;97818.66;5042684;28;20054;-72
2022/01/20 12:36:13;;;;;;;39.57;13.67;;;;;;;-3.06;75.26;97840.03;5017886;28;20103;-69
2022/01/20 12:38:40;;;;;;;37.83;12.60;;;;;;;-3.06;74.95;97820.50;5028664;28;20509;-70
2022/01/20 12:41:10;;;;;;;31.38;12.82;;;;;;;-3.07;74.98;97830.41;5052872;28;20075;-69
2022/01/20 12:43:40;;;;;;;36.30;12.73;;;;;;;-3.16;75.01;97805.88;5050418;28;20501;-71